Time;durP1;ratioP1;P1;durP2;ratioP2;P2;SDS_P1;SDS_P2;PMS_P1;PMS_P2;Temp;Humidity;BMP_temperature;BMP_pressure;BME280_temperature;BME280_humidity;BME280_pressure;Samples;Min_cycle;Max_cycle;Signal;HPM_P1;HPM_P2
2023/02/16 00:01:50;;;;;;;49.13;28.48;;;5.50;66.70;;;;;;5055155;28;20379;-75
2023/02/16 00:04:21;;;;;;;52.45;28.13;;;5.50;66.70;;;;;;5055745;28;20553;-75
2023/02/16 00:06:47;;;;;;;46.15;27.67;;;5.40;66.90;;;;;;5055809;28;20386;-75
2023/02/16 00:09:13;;;;;;;50.70;28.45;;;5.40;68.00;;;;;;5056237;28;20568;-76
2023/02/16 00:14:25;;;;;;;48.13;27.30;;;5.30;68.50;;;;;;5055956;28;20396;-76
2023/02/16 00:16:56;;;;;;;50.10;27.38;;;5.30;69.20;;;;;;5039426;28;20389;-76
2023/02/16 00:19:28;;;;;;;50.33;28.25;;;5.30;68.20;;;;;;5048214;22;20444;-77
2023/02/16 00:21:58;;;;;;;52.17;28.80;;;5.30;68.40;;;;;;5013665;28;20386;-77
2023/02/16 00:24:25;;;;;;;47.47;28.08;;;5.30;68.90;;;;;;5013934;28;20408;-74
2023/02/16 00:26:52;;;;;;;54.60;29.00;;;5.30;69.20;;;;;;5014273;28;20382;-76
2023/02/16 00:29:23;;;;;;;48.45;28.58;;;5.30;69.40;;;;;;5014027;28;20801;-77
2023/02/16 00:31:50;;;;;;;49.95;28.60;;;5.40;68.70;;;;;;5013307;28;20402;-77
2023/02/16 00:34:29;;;;;;;53.60;29.48;;;5.30;68.00;;;;;;5017513;28;20392;-77
2023/02/16 00:36:55;;;;;;;48.38;29.17;;;5.20;69.10;;;;;;5018167;28;20391;-76
2023/02/16 00:39:21;;;;;;;49.80;28.85;;;5.30;70.90;;;;;;4999218;28;20443;-76
2023/02/16 00:41:50;;;;;;;51.60;28.85;;;5.40;68.50;;;;;;5012968;28;20417;-75
2023/02/16 00:44:39;;;;;;;50.53;28.55;;;5.30;67.00;;;;;;5013034;28;20425;-76
2023/02/16 00:47:24;;;;;;;55.00;30.70;;;5.20;68.40;;;;;;5014923;28;20480;-75
2023/02/16 00:49:52;;;;;;;54.13;29.80;;;5.10;70.00;;;;;;5015135;28;20476;-76
2023/02/16 00:52:33;;;;;;;52.53;28.75;;;5.10;71.20;;;;;;5018315;28;20404;-77
2023/02/16 00:55:00;;;;;;;53.60;28.85;;;5.10;69.10;;;;;;5020460;28;20393;-74
2023/02/16 00:57:29;;;;;;;48.15;28.17;;;5.00;69.60;;;;;;5028340;28;20444;-74
2023/02/16 01:00:26;;;;;;;50.10;28.17;;;5.10;70.60;;;;;;5034174;28;20488;-74
2023/02/16 01:02:56;;;;;;;49.40;28.83;;;5.00;71.20;;;;;;5029195;28;20385;-73
2023/02/16 01:05:22;;;;;;;50.75;28.40;;;5.00;71.30;;;;;;5030632;28;20421;-72
2023/02/16 01:13:18;;;;;;;55.22;29.60;;;4.90;72.90;;;;;;5012579;28;20429;-76
2023/02/16 01:15:44;;;;;;;52.40;28.55;;;4.90;72.90;;;;;;5012244;28;20385;-75
2023/02/16 01:18:13;;;;;;;49.50;28.80;;;5.00;71.60;;;;;;5014134;28;20389;-76
2023/02/16 01:20:38;;;;;;;47.63;29.85;;;4.90;71.40;;;;;;5015014;28;20795;-76
2023/02/16 01:23:04;;;;;;;55.00;29.50;;;4.90;72.50;;;;;;5019639;28;20408;-77
2023/02/16 01:25:30;;;;;;;46.70;28.80;;;4.80;72.70;;;;;;5016054;28;20389;-75
2023/02/16 01:27:55;;;;;;;52.73;29.93;;;4.90;71.70;;;;;;5013045;28;20561;-74
2023/02/16 01:30:23;;;;;;;51.55;28.55;;;5.00;71.10;;;;;;5011790;28;20408;-76
2023/02/16 01:32:52;;;;;;;51.50;29.05;;;4.90;70.50;;;;;;5012105;28;20385;-76
2023/02/16 01:35:32;;;;;;;55.27;30.30;;;4.80;71.30;;;;;;5011793;28;20384;-76
2023/02/16 01:37:58;;;;;;;52.47;28.92;;;4.80;72.30;;;;;;5011781;28;20889;-76
2023/02/16 01:40:37;;;;;;;50.30;28.80;;;4.80;71.80;;;;;;5011820;28;20393;-76
2023/02/16 01:43:15;;;;;;;53.15;29.50;;;4.80;72.90;;;;;;4993504;28;20934;-76
2023/02/16 01:45:46;;;;;;;54.80;29.52;;;4.70;73.60;;;;;;5011166;28;20400;-75
2023/02/16 01:48:25;;;;;;;53.72;30.27;;;4.60;74.10;;;;;;5011148;28;20448;-76
2023/02/16 01:51:05;;;;;;;57.95;31.35;;;4.70;74.80;;;;;;5010781;28;20429;-72
2023/02/16 01:53:52;;;;;;;53.72;29.25;;;4.60;75.10;;;;;;5011808;28;20727;-76
2023/02/16 01:56:46;;;;;;;56.70;30.52;;;4.60;75.00;;;;;;5013980;28;20380;-76
2023/02/16 01:59:38;;;;;;;54.08;30.02;;;4.60;74.40;;;;;;5011645;28;20469;-75
2023/02/16 02:02:15;;;;;;;55.45;30.40;;;4.60;74.60;;;;;;5012282;28;20388;-75
2023/02/16 02:05:35;;;;;;;55.70;30.90;;;4.50;74.70;;;;;;5012716;28;20421;-77
2023/02/16 02:08:31;;;;;;;55.75;29.95;;;4.50;75.10;;;;;;4932923;29;20427;-75
2023/02/16 02:11:19;;;;;;;55.20;30.30;;;4.50;75.30;;;;;;4932339;29;20472;-76
2023/02/16 02:14:01;;;;;;;51.10;29.65;;;4.60;74.40;;;;;;5006015;28;20392;-73
2023/02/16 02:16:27;;;;;;;58.28;30.73;;;4.60;74.30;;;;;;4993646;28;20439;-75
2023/02/16 02:18:53;;;;;;;56.55;31.02;;;4.50;74.70;;;;;;5012516;28;20797;-74
2023/02/16 02:24:11;;;;;;;55.40;30.85;;;4.40;75.40;;;;;;5011191;28;20427;-74
2023/02/16 02:26:52;;;;;;;56.88;31.00;;;4.30;76.00;;;;;;5011858;28;20464;-76
2023/02/16 02:29:23;;;;;;;52.58;29.73;;;4.40;76.40;;;;;;5015092;28;20822;-76
2023/02/16 02:32:22;;;;;;;54.75;31.23;;;4.40;75.90;;;;;;5022636;28;20750;-73
2023/02/16 02:35:14;;;;;;;55.83;30.83;;;4.40;76.60;;;;;;5018253;28;20404;-75
2023/02/16 02:37:49;;;;;;;53.63;29.88;;;4.40;76.40;;;;;;5011046;28;20417;-76
2023/02/16 02:40:26;;;;;;;53.50;30.00;;;4.40;76.90;;;;;;5010956;28;20397;-76
2023/02/16 02:42:57;;;;;;;55.22;30.70;;;4.30;76.40;;;;;;5010976;28;20395;-76
2023/02/16 02:45:26;;;;;;;52.58;29.83;;;4.40;77.60;;;;;;5011047;28;20462;-76
2023/02/16 02:47:52;;;;;;;55.33;31.00;;;4.40;75.50;;;;;;5011211;28;20396;-75
2023/02/16 02:50:36;;;;;;;55.00;30.58;;;4.40;76.10;;;;;;5011307;28;20389;-76
2023/02/16 02:53:11;;;;;;;56.97;30.08;;;4.30;76.00;;;;;;5011473;28;20500;-74
2023/02/16 03:01:17;;;;;;;56.72;30.73;;;4.20;77.80;;;;;;5011066;28;20388;-76
2023/02/16 03:03:47;;;;;;;52.40;29.53;;;4.20;77.80;;;;;;5010472;28;20490;-75
2023/02/16 03:06:19;;;;;;;53.03;30.83;;;4.30;77.70;;;;;;5010590;28;20850;-75
2023/02/16 03:08:49;;;;;;;56.33;30.80;;;4.20;77.30;;;;;;5010581;28;20381;-76
2023/02/16 03:14:29;;;;;;;55.70;29.80;;;4.20;76.50;;;;;;5013567;28;20380;-75
2023/02/16 03:31:01;;;;;;;55.58;29.85;;;4.30;75.80;;;;;;5013413;28;20383;-75
2023/02/16 03:33:28;;;;;;;54.13;31.15;;;4.30;75.60;;;;;;5013957;28;20393;-75
2023/02/16 03:35:54;;;;;;;54.95;29.80;;;4.20;75.60;;;;;;5013493;28;20427;-74
2023/02/16 03:38:21;;;;;;;56.80;30.38;;;4.20;74.70;;;;;;5013866;28;20420;-75
2023/02/16 03:40:48;;;;;;;55.10;30.70;;;4.20;74.20;;;;;;5015288;28;20720;-77
2023/02/16 03:43:14;;;;;;;55.05;30.02;;;4.20;74.60;;;;;;5017802;28;20392;-74
2023/02/16 03:45:42;;;;;;;55.00;30.63;;;4.20;75.50;;;;;;5020038;28;20395;-73
2023/02/16 03:48:07;;;;;;;54.60;30.40;;;4.20;75.90;;;;;;5018189;28;20465;-73
2023/02/16 03:50:33;;;;;;;53.20;30.35;;;4.20;75.50;;;;;;5015374;28;20412;-75
2023/02/16 03:53:07;;;;;;;53.13;30.27;;;4.20;75.80;;;;;;5013008;28;20397;-76
2023/02/16 03:55:34;;;;;;;55.55;30.95;;;4.10;76.90;;;;;;5013517;28;20385;-76
2023/02/16 03:58:00;;;;;;;54.50;30.40;;;4.00;77.40;;;;;;5013125;28;20409;-76
2023/02/16 04:00:26;;;;;;;57.25;31.20;;;4.10;77.00;;;;;;5013345;28;20392;-75
2023/02/16 04:02:52;;;;;;;54.85;31.00;;;4.10;77.20;;;;;;5014362;28;20385;-76
2023/02/16 04:05:18;;;;;;;56.92;31.17;;;4.00;76.90;;;;;;5015727;28;20881;-77
2023/02/16 04:07:43;;;;;;;52.27;30.57;;;4.10;77.70;;;;;;5015434;28;20392;-75
2023/02/16 04:10:09;;;;;;;56.90;30.43;;;4.00;77.70;;;;;;5014303;28;20392;-78
2023/02/16 04:12:37;;;;;;;58.10;31.07;;;4.00;79.00;;;;;;5014469;28;20398;-76
2023/02/16 04:15:09;;;;;;;58.05;31.70;;;4.00;79.80;;;;;;4996172;28;20397;-74
2023/02/16 04:17:35;;;;;;;54.70;29.70;;;4.00;79.90;;;;;;5013200;28;20393;-77
2023/02/16 04:20:00;;;;;;;61.88;32.03;;;3.90;80.00;;;;;;4995562;28;20454;-75
2023/02/16 04:22:26;;;;;;;58.35;32.00;;;3.90;80.20;;;;;;5013374;28;20886;-76
2023/02/16 04:24:52;;;;;;;55.87;31.30;;;4.00;80.40;;;;;;4996411;28;20426;-76
2023/02/16 04:27:17;;;;;;;54.60;30.60;;;3.90;80.30;;;;;;5013550;28;20864;-77
2023/02/16 04:29:43;;;;;;;62.80;31.10;;;3.90;79.90;;;;;;5012944;28;20734;-74
2023/02/16 04:32:09;;;;;;;56.97;31.58;;;3.90;80.80;;;;;;5012701;28;20719;-76
2023/02/16 04:34:34;;;;;;;55.70;31.88;;;4.00;79.70;;;;;;5014426;28;20385;-75
2023/02/16 04:37:01;;;;;;;55.42;30.85;;;3.90;80.30;;;;;;5013591;28;20388;-75
2023/02/16 04:39:26;;;;;;;54.80;31.73;;;3.90;80.30;;;;;;5012718;28;20404;-75
2023/02/16 04:41:52;;;;;;;57.37;31.57;;;3.90;80.80;;;;;;4995094;28;20450;-73
2023/02/16 04:44:17;;;;;;;58.43;31.87;;;3.90;81.40;;;;;;5013146;28;20465;-75
2023/02/16 04:46:43;;;;;;;54.73;30.60;;;4.00;80.40;;;;;;5013753;28;20589;-75
2023/02/16 04:49:09;;;;;;;56.23;31.13;;;3.90;80.10;;;;;;5012526;28;20393;-76
2023/02/16 04:51:34;;;;;;;57.75;32.58;;;3.90;81.10;;;;;;5012587;28;20389;-77
2023/02/16 04:54:00;;;;;;;61.05;31.35;;;3.90;81.30;;;;;;5014050;28;20395;-77
2023/02/16 04:56:27;;;;;;;56.45;31.17;;;4.00;81.30;;;;;;5014647;28;20479;-75
2023/02/16 04:58:52;;;;;;;60.05;31.02;;;3.90;81.00;;;;;;5013946;28;20388;-76
2023/02/16 05:01:23;;;;;;;58.80;33.87;;;4.00;79.90;;;;;;5015162;28;20814;-76
2023/02/16 05:03:49;;;;;;;56.75;30.52;;;4.00;79.10;;;;;;5029533;28;20408;-74
2023/02/16 05:06:14;;;;;;;57.53;31.70;;;4.00;79.40;;;;;;5026898;28;20441;-74
2023/02/16 05:08:40;;;;;;;58.13;32.30;;;4.10;77.90;;;;;;5012314;28;20412;-76
2023/02/16 05:16:34;;;;;;;60.60;31.70;;;4.00;80.60;;;;;;5012869;28;20813;-76
2023/02/16 05:19:00;;;;;;;62.15;33.47;;;4.00;79.90;;;;;;5012368;28;20416;-76
2023/02/16 05:21:31;;;;;;;61.88;32.20;;;3.90;80.20;;;;;;5011998;28;20862;-75
2023/02/16 05:23:58;;;;;;;56.63;32.05;;;3.90;80.50;;;;;;5012848;28;20455;-75
2023/02/16 05:26:24;;;;;;;61.40;32.38;;;3.90;80.40;;;;;;5012755;28;20400;-75
2023/02/16 05:28:49;;;;;;;59.20;33.30;;;3.90;81.30;;;;;;5012401;28;20384;-76
2023/02/16 05:31:15;;;;;;;61.03;32.92;;;3.90;81.50;;;;;;5012738;28;20872;-74
2023/02/16 05:33:41;;;;;;;64.78;33.20;;;3.90;81.20;;;;;;4996818;28;20439;-76
2023/02/16 05:36:06;;;;;;;61.90;32.67;;;3.90;80.30;;;;;;5013542;28;20430;-75
2023/02/16 05:38:32;;;;;;;60.10;32.23;;;3.90;79.40;;;;;;5013186;28;20384;-75
2023/02/16 05:40:58;;;;;;;63.97;32.77;;;3.90;79.80;;;;;;4994588;28;20404;-74
2023/02/16 05:43:24;;;;;;;59.72;32.55;;;4.00;79.80;;;;;;4994806;28;20397;-75
2023/02/16 05:45:50;;;;;;;53.60;31.33;;;4.00;79.80;;;;;;5011774;28;20890;-73
2023/02/16 05:48:15;;;;;;;62.17;34.03;;;4.00;79.80;;;;;;5011955;28;20810;-75
2023/02/16 05:50:41;;;;;;;62.97;33.63;;;4.00;79.80;;;;;;4994027;28;20395;-76
2023/02/16 05:53:06;;;;;;;58.75;33.10;;;4.00;79.20;;;;;;4997058;28;20405;-75
2023/02/16 05:55:32;;;;;;;58.95;32.28;;;4.10;78.50;;;;;;4997077;28;20401;-75
2023/02/16 05:57:57;;;;;;;57.97;32.50;;;4.10;77.90;;;;;;5016957;28;20757;-76
2023/02/16 06:00:23;;;;;;;54.23;32.20;;;4.20;75.90;;;;;;5015489;28;20479;-76
2023/02/16 06:02:49;;;;;;;56.03;31.67;;;4.30;74.00;;;;;;4997311;28;20400;-75
2023/02/16 06:05:14;;;;;;;57.00;31.90;;;4.40;74.30;;;;;;5015830;28;20410;-75
2023/02/16 06:07:40;;;;;;;60.53;30.57;;;4.50;73.00;;;;;;5017522;28;20415;-75
2023/02/16 06:10:06;;;;;;;56.07;31.07;;;4.60;71.70;;;;;;4996233;28;20427;-75
2023/02/16 06:12:33;;;;;;;61.17;33.63;;;4.60;70.70;;;;;;5013276;28;20820;-74
2023/02/16 06:15:02;;;;;;;59.13;31.40;;;4.60;71.00;;;;;;4995504;28;20404;-75
2023/02/16 06:17:27;;;;;;;57.72;31.48;;;4.70;71.50;;;;;;5012794;28;20448;-75
2023/02/16 06:19:54;;;;;;;57.37;31.87;;;4.70;69.50;;;;;;5013031;28;20427;-74
2023/02/16 06:22:19;;;;;;;55.20;32.17;;;4.80;68.50;;;;;;5011323;28;20384;-73
2023/02/16 06:24:45;;;;;;;60.63;31.80;;;4.90;67.80;;;;;;5013264;28;20773;-74
2023/02/16 06:27:10;;;;;;;58.87;30.20;;;4.90;66.20;;;;;;5014795;28;20404;-75
2023/02/16 06:29:36;;;;;;;54.77;31.30;;;4.90;64.90;;;;;;4995844;28;20397;-75
2023/02/16 06:32:02;;;;;;;53.90;31.27;;;5.00;65.80;;;;;;5011772;28;20864;-74
2023/02/16 06:34:27;;;;;;;62.63;32.10;;;5.00;64.80;;;;;;5010919;28;20534;-73
2023/02/16 06:36:53;;;;;;;57.83;31.00;;;5.00;64.00;;;;;;5010709;28;20393;-73
2023/02/16 06:39:18;;;;;;;55.58;30.70;;;5.00;63.20;;;;;;5010778;28;20937;-74
2023/02/16 06:41:44;;;;;;;55.58;31.25;;;5.00;64.10;;;;;;5010481;28;20385;-74
2023/02/16 06:44:14;;;;;;;55.20;31.60;;;5.00;63.30;;;;;;5013317;28;20400;-74
2023/02/16 06:46:41;;;;;;;55.30;30.20;;;5.10;62.90;;;;;;5014510;28;20387;-74
2023/02/16 06:49:10;;;;;;;54.75;30.45;;;5.20;61.30;;;;;;5014827;28;20451;-74
2023/02/16 06:51:35;;;;;;;58.30;31.00;;;5.20;61.30;;;;;;5014334;28;20485;-74
2023/02/16 06:54:01;;;;;;;54.00;30.38;;;5.20;60.50;;;;;;5014191;28;20385;-74
2023/02/16 06:56:26;;;;;;;55.63;31.92;;;5.30;60.20;;;;;;5014457;28;20401;-74
2023/02/16 06:58:52;;;;;;;55.10;30.13;;;5.30;58.90;;;;;;5014356;28;20392;-74
2023/02/16 07:01:21;;;;;;;59.77;30.10;;;5.30;58.90;;;;;;5014120;28;20381;-74
2023/02/16 07:03:55;;;;;;;58.60;32.28;;;5.40;58.50;;;;;;5018393;28;20478;-73
2023/02/16 07:06:25;;;;;;;53.45;30.30;;;5.50;58.50;;;;;;5019363;28;20390;-73
2023/02/16 07:08:51;;;;;;;56.30;31.15;;;5.60;56.50;;;;;;5017565;28;20389;-73
2023/02/16 07:11:18;;;;;;;54.03;30.80;;;5.70;56.70;;;;;;4997986;28;20483;-75
2023/02/16 07:13:43;;;;;;;50.58;30.15;;;5.70;55.90;;;;;;5018974;28;20396;-72
2023/02/16 07:16:09;;;;;;;54.40;30.57;;;5.80;55.00;;;;;;5018704;28;20399;-74
2023/02/16 07:18:35;;;;;;;54.60;30.60;;;5.90;55.10;;;;;;5015385;28;20432;-75
2023/02/16 07:21:01;;;;;;;54.97;31.17;;;5.90;54.60;;;;;;5019147;28;20399;-74
2023/02/16 07:23:26;;;;;;;52.70;29.93;;;5.90;55.10;;;;;;5000207;28;20394;-73
2023/02/16 07:25:52;;;;;;;53.67;30.70;;;5.80;55.50;;;;;;4997539;28;20389;-74
2023/02/16 07:28:18;;;;;;;56.90;31.70;;;5.90;56.60;;;;;;5000280;28;20492;-72
2023/02/16 07:30:44;;;;;;;54.67;31.13;;;5.90;54.30;;;;;;5004210;28;20758;-73
2023/02/16 07:33:10;;;;;;;55.67;31.47;;;5.90;54.10;;;;;;5017256;28;20388;-75
2023/02/16 07:35:36;;;;;;;56.50;30.08;;;5.90;53.20;;;;;;5018891;28;20480;-73
2023/02/16 07:38:03;;;;;;;52.65;30.27;;;6.00;52.40;;;;;;5016251;28;20484;-73
2023/02/16 07:40:29;;;;;;;63.28;31.30;;;5.90;52.00;;;;;;5012767;28;20477;-74
2023/02/16 07:42:57;;;;;;;53.70;30.80;;;6.00;51.50;;;;;;4988564;28;20484;-76
2023/02/16 07:45:23;;;;;;;59.63;30.90;;;6.00;51.60;;;;;;5013846;28;20413;-73
2023/02/16 07:47:48;;;;;;;56.57;30.70;;;6.10;51.30;;;;;;5009722;28;20876;-77
2023/02/16 07:50:15;;;;;;;59.60;32.27;;;6.20;50.50;;;;;;5006792;28;20393;-74
2023/02/16 07:52:40;;;;;;;56.67;31.92;;;6.20;50.20;;;;;;5000278;28;20402;-75
2023/02/16 07:55:06;;;;;;;57.73;32.00;;;6.40;48.70;;;;;;5011620;28;20463;-74
2023/02/16 07:57:32;;;;;;;54.83;30.70;;;6.40;47.70;;;;;;4991911;28;20423;-74
2023/02/16 07:59:57;;;;;;;54.27;29.00;;;6.50;46.90;;;;;;5011825;28;21019;-74
2023/02/16 08:02:23;;;;;;;53.97;29.80;;;6.60;45.40;;;;;;4990207;28;20907;-79
2023/02/16 08:04:51;;;;;;;53.05;30.50;;;6.60;45.10;;;;;;4992638;28;20413;-73
2023/02/16 08:07:17;;;;;;;62.13;31.75;;;6.60;46.10;;;;;;4977525;28;20398;-75
2023/02/16 08:09:43;;;;;;;50.20;29.38;;;6.60;46.10;;;;;;4999013;28;20390;-74
2023/02/16 08:12:13;;;;;;;52.67;29.83;;;6.70;44.80;;;;;;5004778;28;20417;-73
2023/02/16 08:14:39;;;;;;;53.20;29.87;;;6.80;43.90;;;;;;5016625;28;20441;-74
2023/02/16 08:17:07;;;;;;;55.55;31.35;;;6.80;44.00;;;;;;5014880;28;20474;-74
2023/02/16 08:19:34;;;;;;;54.57;29.70;;;6.90;44.30;;;;;;4994398;28;20419;-74
2023/02/16 08:22:01;;;;;;;57.53;30.70;;;6.90;43.20;;;;;;5011260;28;20401;-75
2023/02/16 08:24:27;;;;;;;55.83;30.23;;;6.90;42.60;;;;;;5001370;28;20429;-73
2023/02/16 08:26:54;;;;;;;56.42;30.08;;;6.90;43.70;;;;;;4989932;28;20401;-73
2023/02/16 08:29:21;;;;;;;55.13;29.15;;;6.70;44.20;;;;;;4990271;28;20493;-75
2023/02/16 08:31:47;;;;;;;51.75;29.13;;;6.70;44.00;;;;;;4992660;28;20410;-75
2023/02/16 08:34:14;;;;;;;51.97;28.83;;;6.70;43.70;;;;;;4992324;28;20851;-77
2023/02/16 08:36:43;;;;;;;53.90;29.27;;;6.70;43.20;;;;;;4991660;28;20458;-75
2023/02/16 08:39:17;;;;;;;57.13;31.52;;;6.70;44.80;;;;;;4991574;28;20402;-75
2023/02/16 08:41:45;;;;;;;52.73;31.83;;;6.70;45.50;;;;;;4991485;28;20899;-74
2023/02/16 08:44:11;;;;;;;57.30;31.02;;;6.70;46.40;;;;;;5010624;28;20412;-76
2023/02/16 08:46:39;;;;;;;50.92;28.67;;;6.70;45.70;;;;;;5007849;28;20405;-76
2023/02/16 08:49:06;;;;;;;56.90;31.27;;;6.90;45.10;;;;;;4992865;28;20422;-76
2023/02/16 08:51:34;;;;;;;49.53;29.50;;;7.00;44.30;;;;;;5010108;28;20388;-74
2023/02/16 08:54:01;;;;;;;53.73;30.20;;;7.10;43.30;;;;;;5009886;28;20468;-75
2023/02/16 08:56:31;;;;;;;52.58;29.60;;;7.30;42.10;;;;;;5009595;28;20910;-74
2023/02/16 08:58:57;;;;;;;56.05;30.60;;;7.50;40.90;;;;;;5002141;28;20406;-75
2023/02/16 09:01:23;;;;;;;53.92;31.90;;;7.70;40.40;;;;;;5007363;28;20430;-75
2023/02/16 09:03:50;;;;;;;57.10;30.88;;;7.90;39.40;;;;;;5009830;28;20451;-75
2023/02/16 09:06:20;;;;;;;55.10;31.10;;;8.00;38.00;;;;;;5010627;28;20443;-74
2023/02/16 09:08:53;;;;;;;52.30;30.02;;;8.20;36.70;;;;;;4992077;28;20476;-75
2023/02/16 09:11:19;;;;;;;51.05;29.73;;;8.40;35.90;;;;;;5010069;28;20400;-74
2023/02/16 09:13:45;;;;;;;54.42;31.15;;;8.50;35.50;;;;;;5009692;28;20436;-74
2023/02/16 09:16:16;;;;;;;52.03;29.83;;;8.60;35.20;;;;;;5010020;28;20492;-75
2023/02/16 09:18:43;;;;;;;53.65;30.20;;;8.70;34.60;;;;;;5009866;28;20403;-75
2023/02/16 09:21:12;;;;;;;49.92;30.80;;;8.80;34.50;;;;;;4988948;28;20485;-74
2023/02/16 09:23:39;;;;;;;50.47;29.90;;;8.90;34.00;;;;;;4994332;28;20419;-74
2023/02/16 09:26:08;;;;;;;52.33;29.38;;;9.10;33.00;;;;;;5009611;28;20389;-75
2023/02/16 09:28:36;;;;;;;54.63;31.88;;;9.10;32.80;;;;;;5009683;28;20381;-74
2023/02/16 09:31:14;;;;;;;48.88;30.05;;;9.20;32.80;;;;;;4989877;28;20405;-74
2023/02/16 09:33:41;;;;;;;53.35;30.73;;;9.20;33.20;;;;;;5009743;28;20384;-73
2023/02/16 09:36:08;;;;;;;52.47;29.63;;;9.30;33.40;;;;;;5009484;28;20397;-74
2023/02/16 09:38:34;;;;;;;53.78;28.50;;;9.20;32.50;;;;;;5010156;28;20738;-73
2023/02/16 09:41:44;;;;;;;52.08;31.45;;;9.30;32.10;;;;;;5008660;28;20815;-75
2023/02/16 09:44:39;;;;;;;47.73;28.90;;;9.30;32.10;;;;;;4990435;28;20426;-76
2023/02/16 09:47:16;;;;;;;50.15;27.85;;;9.40;31.80;;;;;;4979374;28;20948;-74
2023/02/16 09:49:45;;;;;;;52.67;30.92;;;9.50;31.50;;;;;;5010499;28;20885;-76
2023/02/16 09:52:29;;;;;;;53.92;29.58;;;9.60;30.90;;;;;;5005398;28;20764;-74
2023/02/16 09:54:58;;;;;;;51.00;30.48;;;9.60;30.70;;;;;;4990796;28;20421;-75
2023/02/16 09:57:26;;;;;;;57.72;31.30;;;9.50;31.70;;;;;;5010671;28;20781;-76
2023/02/16 10:00:24;;;;;;;49.88;29.90;;;9.50;32.40;;;;;;5009459;28;20749;-74
2023/02/16 10:03:17;;;;;;;52.70;29.65;;;9.40;32.50;;;;;;4998657;28;20861;-76
2023/02/16 10:06:16;;;;;;;49.72;29.85;;;9.40;32.10;;;;;;5014689;28;21213;-71
2023/02/16 10:08:49;;;;;;;51.85;29.55;;;9.30;32.70;;;;;;4996811;28;20421;-74
2023/02/16 10:11:37;;;;;;;47.38;29.67;;;9.30;33.30;;;;;;4996256;28;20382;-71
2023/02/16 10:14:15;;;;;;;56.60;31.10;;;9.20;33.60;;;;;;4989786;28;20394;-75
2023/02/16 10:17:09;;;;;;;54.15;30.58;;;9.20;33.50;;;;;;4997009;28;20388;-74
2023/02/16 10:19:51;;;;;;;61.80;32.45;;;9.20;34.10;;;;;;4960883;28;20872;-73
2023/02/16 10:22:27;;;;;;;49.22;30.70;;;9.40;33.80;;;;;;4993116;28;20472;-73
2023/02/16 10:25:04;;;;;;;59.20;32.92;;;9.20;33.70;;;;;;4991333;28;20803;-73
2023/02/16 10:27:37;;;;;;;53.47;30.92;;;9.20;34.00;;;;;;4992154;28;20525;-71
2023/02/16 10:30:18;;;;;;;56.22;32.45;;;9.20;34.30;;;;;;4994336;28;20481;-73
2023/02/16 10:33:14;;;;;;;54.83;30.97;;;9.10;35.20;;;;;;5011122;28;20388;-72
2023/02/16 10:35:45;;;;;;;57.88;32.38;;;9.20;35.40;;;;;;5012629;28;20469;-71
2023/02/16 10:38:36;;;;;;;51.65;30.77;;;9.30;34.80;;;;;;4994615;28;20412;-71
2023/02/16 10:41:26;;;;;;;59.40;32.80;;;9.40;34.50;;;;;;4990411;28;20418;-72
2023/02/16 10:44:00;;;;;;;57.95;32.03;;;9.40;34.20;;;;;;4979621;28;20993;-72
2023/02/16 10:46:32;;;;;;;54.83;31.30;;;9.50;34.80;;;;;;5007246;28;20394;-71
2023/02/16 10:49:00;;;;;;;61.05;33.80;;;9.60;33.70;;;;;;5006101;28;20393;-72
2023/02/16 10:51:32;;;;;;;54.00;31.85;;;9.60;34.00;;;;;;5011980;28;20389;-72
2023/02/16 10:54:06;;;;;;;55.90;32.47;;;9.70;34.10;;;;;;5014831;28;20747;-73
2023/02/16 10:56:40;;;;;;;52.50;32.10;;;9.80;32.90;;;;;;5015569;28;20393;-74
2023/02/16 10:59:41;;;;;;;57.37;33.20;;;9.90;32.90;;;;;;5015231;28;20895;-73
2023/02/16 11:02:24;;;;;;;55.50;32.38;;;9.90;33.30;;;;;;4980428;28;20439;-72
2023/02/16 11:04:52;;;;;;;64.38;33.85;;;10.00;32.40;;;;;;5015182;28;20401;-72
2023/02/16 11:07:20;;;;;;;56.28;32.45;;;10.20;31.80;;;;;;5015532;28;20393;-72
2023/02/16 11:09:54;;;;;;;58.42;32.60;;;10.40;31.50;;;;;;5015316;28;20381;-73
2023/02/16 11:12:31;;;;;;;53.95;32.85;;;10.50;30.70;;;;;;5015163;28;20388;-72
2023/02/16 11:15:02;;;;;;;58.72;31.95;;;10.60;30.00;;;;;;5018288;28;20483;-71
2023/02/16 11:17:31;;;;;;;57.35;31.88;;;10.80;29.50;;;;;;5015976;28;20438;-72
2023/02/16 11:20:04;;;;;;;60.97;35.63;;;10.90;29.20;;;;;;5014867;28;20409;-72
2023/02/16 11:22:38;;;;;;;60.67;34.42;;;10.90;29.90;;;;;;5015505;28;20580;-73
2023/02/16 11:25:21;;;;;;;53.30;31.73;;;10.90;30.30;;;;;;5018148;28;20435;-73
2023/02/16 11:27:55;;;;;;;53.42;31.73;;;10.80;30.10;;;;;;5021740;28;20415;-74
2023/02/16 11:30:31;;;;;;;63.90;35.67;;;10.80;30.70;;;;;;5017751;28;20401;-73
2023/02/16 11:32:59;;;;;;;57.13;34.53;;;10.80;31.10;;;;;;5000821;28;20402;-75
2023/02/16 11:35:25;;;;;;;55.40;33.03;;;10.90;30.80;;;;;;5009422;28;20487;-75
2023/02/16 11:37:50;;;;;;;57.90;33.10;;;11.00;31.10;;;;;;5016718;28;20392;-75
2023/02/16 11:40:24;;;;;;;60.72;32.63;;;10.90;31.60;;;;;;5015020;28;20393;-73
2023/02/16 11:42:53;;;;;;;56.42;33.50;;;11.00;32.40;;;;;;4992318;28;20402;-73
2023/02/16 11:45:34;;;;;;;54.95;30.38;;;11.00;32.90;;;;;;5010747;28;20420;-73
2023/02/16 11:48:02;;;;;;;52.33;30.52;;;11.00;32.40;;;;;;5013310;28;20388;-72
2023/02/16 11:50:28;;;;;;;57.65;31.88;;;10.90;33.40;;;;;;5014210;28;20438;-73
2023/02/16 11:53:09;;;;;;;55.00;32.85;;;10.80;34.00;;;;;;5014693;28;20381;-72
2023/02/16 11:55:40;;;;;;;54.92;32.53;;;10.80;34.70;;;;;;5019551;28;20388;-74
2023/02/16 11:58:26;;;;;;;54.75;32.50;;;10.80;35.10;;;;;;5026818;28;20463;-71
2023/02/16 12:01:12;;;;;;;54.55;31.52;;;10.80;34.80;;;;;;5025245;28;20788;-70
2023/02/16 12:04:02;;;;;;;54.55;33.60;;;10.80;36.00;;;;;;5013165;28;20401;-73
2023/02/16 12:06:41;;;;;;;53.10;33.63;;;10.80;36.40;;;;;;5013166;28;20484;-73
2023/02/16 12:09:31;;;;;;;61.13;33.05;;;10.80;37.50;;;;;;5013905;28;20417;-72
2023/02/16 12:12:11;;;;;;;57.90;33.65;;;10.90;36.40;;;;;;5013637;28;20391;-74
2023/02/16 12:15:13;;;;;;;54.70;33.27;;;10.90;36.80;;;;;;5015089;28;20404;-73
2023/02/16 12:18:03;;;;;;;59.92;33.63;;;11.00;37.80;;;;;;5015980;28;20400;-71
2023/02/16 12:20:40;;;;;;;56.55;32.75;;;11.20;35.80;;;;;;5015702;28;20467;-71
2023/02/16 12:23:43;;;;;;;56.28;33.90;;;11.30;35.00;;;;;;5018322;28;20384;-75
2023/02/16 12:26:18;;;;;;;59.60;33.70;;;11.40;35.30;;;;;;4991560;28;20456;-72
2023/02/16 12:29:05;;;;;;;58.15;33.85;;;11.50;35.20;;;;;;5016975;28;20818;-74
2023/02/16 12:31:55;;;;;;;54.90;32.78;;;11.70;34.50;;;;;;4998020;28;20406;-73
2023/02/16 12:34:41;;;;;;;62.92;34.05;;;11.80;34.60;;;;;;5009550;28;20483;-77
2023/02/16 12:37:33;;;;;;;56.08;32.63;;;12.00;34.20;;;;;;4995211;28;20383;-74
2023/02/16 12:40:01;;;;;;;53.47;33.30;;;12.20;32.60;;;;;;4996180;28;20948;-74
2023/02/16 12:42:48;;;;;;;50.10;31.92;;;12.40;32.70;;;;;;5010740;28;20393;-72
2023/02/16 12:45:21;;;;;;;53.70;32.20;;;12.40;33.00;;;;;;5013503;28;20412;-72
2023/02/16 12:47:53;;;;;;;50.60;31.90;;;12.40;33.80;;;;;;5015372;28;20422;-75
2023/02/16 12:50:26;;;;;;;53.40;32.28;;;12.50;33.70;;;;;;4996527;28;20454;-75
2023/02/16 12:52:58;;;;;;;51.85;32.95;;;12.40;33.80;;;;;;5009413;28;20388;-73
2023/02/16 12:55:37;;;;;;;52.70;31.92;;;12.50;34.40;;;;;;5012819;28;20410;-75
2023/02/16 12:58:15;;;;;;;54.17;32.83;;;12.50;33.70;;;;;;5014118;28;20401;-75
2023/02/16 13:00:57;;;;;;;57.00;32.30;;;12.40;33.90;;;;;;5012538;28;20432;-77
2023/02/16 13:03:29;;;;;;;58.65;34.30;;;12.30;34.70;;;;;;5011405;28;20416;-74
2023/02/16 13:06:39;;;;;;;55.13;33.33;;;12.20;35.30;;;;;;5010596;28;20385;-75
2023/02/16 13:09:23;;;;;;;52.72;33.00;;;12.10;36.60;;;;;;5010329;28;20396;-73
2023/02/16 13:11:57;;;;;;;56.13;33.92;;;12.10;36.70;;;;;;4991938;28;20475;-73
2023/02/16 13:14:28;;;;;;;54.45;33.75;;;12.20;37.10;;;;;;4991027;28;20758;-71
2023/02/16 13:16:59;;;;;;;54.17;34.08;;;12.30;37.10;;;;;;5001083;28;20412;-72
2023/02/16 13:19:25;;;;;;;52.13;33.63;;;12.40;35.90;;;;;;4978560;28;20406;-72
2023/02/16 13:22:19;;;;;;;54.72;34.63;;;12.40;35.60;;;;;;4992129;28;20386;-75
2023/02/16 13:25:00;;;;;;;57.47;34.63;;;12.50;35.00;;;;;;5003994;28;20521;-75
2023/02/16 13:27:51;;;;;;;54.55;33.80;;;12.60;35.20;;;;;;4994377;28;20688;-76
2023/02/16 13:30:33;;;;;;;59.20;33.75;;;12.70;36.20;;;;;;4999883;28;20754;-75
2023/02/16 13:33:07;;;;;;;58.03;32.63;;;12.80;35.30;;;;;;5011442;28;20464;-75
2023/02/16 13:35:42;;;;;;;52.90;34.60;;;12.80;35.10;;;;;;5011970;28;20788;-74
2023/02/16 13:38:25;;;;;;;56.08;32.63;;;12.90;33.70;;;;;;4994077;28;20423;-74
2023/02/16 13:41:15;;;;;;;62.70;33.55;;;13.00;33.10;;;;;;5011079;28;20476;-74